sensor_id;sensor_type;location;lat;lon;timestamp;temperature;humidity
1083;DHT22;530;51.448;7.238;2022-10-12T00:01:16;7.30;99.90
1083;DHT22;530;51.448;7.238;2022-10-12T00:03:41;7.30;99.90
1083;DHT22;530;51.448;7.238;2022-10-12T00:06:11;7.30;99.90
1083;DHT22;530;51.448;7.238;2022-10-12T00:08:38;7.20;99.90
1083;DHT22;530;51.448;7.238;2022-10-12T00:11:05;7.20;99.90
1083;DHT22;530;51.448;7.238;2022-10-12T00:13:31;7.20;99.90
1083;DHT22;530;51.448;7.238;2022-10-12T00:16:03;7.00;99.90
1083;DHT22;530;51.448;7.238;2022-10-12T00:18:29;7.10;99.90
1083;DHT22;530;51.448;7.238;2022-10-12T00:21:10;6.90;99.90
1083;DHT22;530;51.448;7.238;2022-10-12T00:23:37;6.60;99.90
1083;DHT22;530;51.448;7.238;2022-10-12T00:26:06;7.10;99.90
1083;DHT22;530;51.448;7.238;2022-10-12T00:28:33;6.60;99.90
1083;DHT22;530;51.448;7.238;2022-10-12T00:30:59;7.00;99.90
1083;DHT22;530;51.448;7.238;2022-10-12T00:33:27;6.90;99.90
1083;DHT22;530;51.448;7.238;2022-10-12T00:35:53;6.90;99.90
1083;DHT22;530;51.448;7.238;2022-10-12T00:38:20;7.10;99.90
1083;DHT22;530;51.448;7.238;2022-10-12T00:40:46;6.90;99.90
1083;DHT22;530;51.448;7.238;2022-10-12T00:45:55;6.90;99.90
1083;DHT22;530;51.448;7.238;2022-10-12T00:48:22;6.90;99.90
1083;DHT22;530;51.448;7.238;2022-10-12T00:50:48;6.90;99.90
1083;DHT22;530;51.448;7.238;2022-10-12T00:53:17;6.90;99.90
1083;DHT22;530;51.448;7.238;2022-10-12T00:55:48;6.70;99.90
1083;DHT22;530;51.448;7.238;2022-10-12T00:58:15;6.80;99.90
1083;DHT22;530;51.448;7.238;2022-10-12T01:00:41;6.70;99.90
1083;DHT22;530;51.448;7.238;2022-10-12T01:03:09;6.70;99.90
1083;DHT22;530;51.448;7.238;2022-10-12T01:05:37;6.70;99.90
1083;DHT22;530;51.448;7.238;2022-10-12T01:08:04;6.90;99.90
1083;DHT22;530;51.448;7.238;2022-10-12T01:10:29;7.10;99.90
1083;DHT22;530;51.448;7.238;2022-10-12T01:12:55;6.90;99.90
1083;DHT22;530;51.448;7.238;2022-10-12T01:15:22;6.80;99.90
1083;DHT22;530;51.448;7.238;2022-10-12T01:17:59;6.80;99.90
1083;DHT22;530;51.448;7.238;2022-10-12T01:31:29;6.60;99.90
1083;DHT22;530;51.448;7.238;2022-10-12T01:36:53;6.60;99.90
1083;DHT22;530;51.448;7.238;2022-10-12T01:39:27;6.50;99.90
1083;DHT22;530;51.448;7.238;2022-10-12T01:42:02;6.60;99.90
1083;DHT22;530;51.448;7.238;2022-10-12T01:44:29;6.40;99.90
1083;DHT22;530;51.448;7.238;2022-10-12T01:46:57;6.50;99.90
1083;DHT22;530;51.448;7.238;2022-10-12T01:49:26;6.40;99.90
1083;DHT22;530;51.448;7.238;2022-10-12T02:07:54;6.40;99.90
1083;DHT22;530;51.448;7.238;2022-10-12T02:10:27;6.60;99.90
1083;DHT22;530;51.448;7.238;2022-10-12T02:12:55;6.70;99.90
1083;DHT22;530;51.448;7.238;2022-10-12T02:15:23;6.50;99.90
1083;DHT22;530;51.448;7.238;2022-10-12T02:17:51;6.70;99.90
1083;DHT22;530;51.448;7.238;2022-10-12T02:20:19;6.60;99.90
1083;DHT22;530;51.448;7.238;2022-10-12T02:22:48;6.40;99.90
1083;DHT22;530;51.448;7.238;2022-10-12T02:25:17;6.60;99.90
1083;DHT22;530;51.448;7.238;2022-10-12T02:27:49;6.40;99.90
1083;DHT22;530;51.448;7.238;2022-10-12T02:30:16;6.40;99.90
1083;DHT22;530;51.448;7.238;2022-10-12T02:32:53;6.30;99.90
1083;DHT22;530;51.448;7.238;2022-10-12T02:38:03;6.30;99.90
1083;DHT22;530;51.448;7.238;2022-10-12T02:40:47;6.20;99.90
1083;DHT22;530;51.448;7.238;2022-10-12T02:43:27;6.40;99.90
1083;DHT22;530;51.448;7.238;2022-10-12T02:45:54;6.30;99.90
1083;DHT22;530;51.448;7.238;2022-10-12T02:48:22;6.40;99.90
1083;DHT22;530;51.448;7.238;2022-10-12T02:50:51;6.40;99.90
1083;DHT22;530;51.448;7.238;2022-10-12T02:53:19;6.60;99.90
1083;DHT22;530;51.448;7.238;2022-10-12T02:55:50;6.80;99.90
1083;DHT22;530;51.448;7.238;2022-10-12T02:58:17;6.70;99.90
1083;DHT22;530;51.448;7.238;2022-10-12T03:00:42;6.70;99.90
1083;DHT22;530;51.448;7.238;2022-10-12T03:03:08;6.70;99.90
1083;DHT22;530;51.448;7.238;2022-10-12T03:05:34;6.70;99.90
1083;DHT22;530;51.448;7.238;2022-10-12T03:07:59;6.60;99.90
1083;DHT22;530;51.448;7.238;2022-10-12T03:10:25;6.40;99.90
1083;DHT22;530;51.448;7.238;2022-10-12T03:12:51;6.50;99.90
1083;DHT22;530;51.448;7.238;2022-10-12T03:15:16;6.30;99.90
1083;DHT22;530;51.448;7.238;2022-10-12T03:17:42;6.20;99.90
1083;DHT22;530;51.448;7.238;2022-10-12T03:20:08;6.20;99.90
1083;DHT22;530;51.448;7.238;2022-10-12T03:22:34;6.40;99.90
1083;DHT22;530;51.448;7.238;2022-10-12T03:24:59;6.30;99.90
1083;DHT22;530;51.448;7.238;2022-10-12T03:27:26;6.20;99.90
1083;DHT22;530;51.448;7.238;2022-10-12T03:29:51;6.20;99.90
1083;DHT22;530;51.448;7.238;2022-10-12T03:32:17;6.20;99.90
1083;DHT22;530;51.448;7.238;2022-10-12T03:34:43;6.40;99.90
1083;DHT22;530;51.448;7.238;2022-10-12T03:37:09;6.50;99.90
1083;DHT22;530;51.448;7.238;2022-10-12T03:39:34;6.50;99.90
1083;DHT22;530;51.448;7.238;2022-10-12T03:42:00;6.60;99.90
1083;DHT22;530;51.448;7.238;2022-10-12T03:44:26;6.80;99.90
1083;DHT22;530;51.448;7.238;2022-10-12T03:46:52;6.60;99.90
1083;DHT22;530;51.448;7.238;2022-10-12T03:49:17;6.60;99.90
1083;DHT22;530;51.448;7.238;2022-10-12T03:51:43;6.70;99.90
1083;DHT22;530;51.448;7.238;2022-10-12T03:54:08;6.60;99.90
1083;DHT22;530;51.448;7.238;2022-10-12T03:56:34;6.70;99.90
1083;DHT22;530;51.448;7.238;2022-10-12T03:59:00;6.60;99.90
1083;DHT22;530;51.448;7.238;2022-10-12T04:01:26;6.60;99.90
1083;DHT22;530;51.448;7.238;2022-10-12T04:03:51;6.50;99.90
1083;DHT22;530;51.448;7.238;2022-10-12T04:06:17;6.60;99.90
1083;DHT22;530;51.448;7.238;2022-10-12T04:08:43;6.60;99.90
1083;DHT22;530;51.448;7.238;2022-10-12T04:11:09;6.60;99.90
1083;DHT22;530;51.448;7.238;2022-10-12T04:13:34;6.50;99.90
1083;DHT22;530;51.448;7.238;2022-10-12T04:16:01;6.60;99.90
1083;DHT22;530;51.448;7.238;2022-10-12T04:18:27;6.70;99.90
1083;DHT22;530;51.448;7.238;2022-10-12T04:20:53;6.40;99.90
1083;DHT22;530;51.448;7.238;2022-10-12T04:23:19;6.20;99.90
1083;DHT22;530;51.448;7.238;2022-10-12T04:25:45;6.20;99.90
1083;DHT22;530;51.448;7.238;2022-10-12T04:28:10;6.00;99.90
1083;DHT22;530;51.448;7.238;2022-10-12T04:30:37;6.10;99.90
1083;DHT22;530;51.448;7.238;2022-10-12T04:33:03;6.10;99.90
1083;DHT22;530;51.448;7.238;2022-10-12T04:35:29;6.30;99.90
1083;DHT22;530;51.448;7.238;2022-10-12T04:37:55;6.30;99.90
1083;DHT22;530;51.448;7.238;2022-10-12T04:40:21;6.50;99.90
1083;DHT22;530;51.448;7.238;2022-10-12T04:42:46;6.50;99.90
1083;DHT22;530;51.448;7.238;2022-10-12T04:45:12;6.60;99.90
1083;DHT22;530;51.448;7.238;2022-10-12T04:47:38;6.50;99.90
1083;DHT22;530;51.448;7.238;2022-10-12T04:50:04;6.50;99.90
1083;DHT22;530;51.448;7.238;2022-10-12T04:52:29;6.40;99.90
1083;DHT22;530;51.448;7.238;2022-10-12T04:54:55;6.60;99.90
1083;DHT22;530;51.448;7.238;2022-10-12T04:57:21;6.50;99.90
1083;DHT22;530;51.448;7.238;2022-10-12T04:59:46;6.50;99.90
1083;DHT22;530;51.448;7.238;2022-10-12T05:02:12;6.50;99.90
1083;DHT22;530;51.448;7.238;2022-10-12T05:04:38;6.70;99.90
1083;DHT22;530;51.448;7.238;2022-10-12T05:07:03;6.90;99.90
1083;DHT22;530;51.448;7.238;2022-10-12T05:09:29;6.80;99.90
1083;DHT22;530;51.448;7.238;2022-10-12T05:11:54;6.80;99.90
1083;DHT22;530;51.448;7.238;2022-10-12T05:14:20;6.60;99.90
1083;DHT22;530;51.448;7.238;2022-10-12T05:16:46;6.70;99.90
1083;DHT22;530;51.448;7.238;2022-10-12T05:19:11;6.60;99.90
1083;DHT22;530;51.448;7.238;2022-10-12T05:21:37;6.70;99.90
1083;DHT22;530;51.448;7.238;2022-10-12T05:24:05;6.70;99.90
1083;DHT22;530;51.448;7.238;2022-10-12T05:26:31;6.60;99.90
1083;DHT22;530;51.448;7.238;2022-10-12T05:28:56;6.70;99.90
1083;DHT22;530;51.448;7.238;2022-10-12T05:31:22;6.80;99.90
1083;DHT22;530;51.448;7.238;2022-10-12T05:33:48;6.50;99.90
1083;DHT22;530;51.448;7.238;2022-10-12T05:36:13;6.70;99.90
1083;DHT22;530;51.448;7.238;2022-10-12T05:38:39;6.50;99.90
1083;DHT22;530;51.448;7.238;2022-10-12T05:41:05;6.50;99.90
1083;DHT22;530;51.448;7.238;2022-10-12T05:43:30;6.60;99.90
1083;DHT22;530;51.448;7.238;2022-10-12T05:45:56;6.40;99.90
1083;DHT22;530;51.448;7.238;2022-10-12T05:48:22;6.40;99.90
1083;DHT22;530;51.448;7.238;2022-10-12T05:50:47;6.50;99.90
1083;DHT22;530;51.448;7.238;2022-10-12T05:53:16;6.30;99.90
1083;DHT22;530;51.448;7.238;2022-10-12T05:55:54;6.40;99.90
1083;DHT22;530;51.448;7.238;2022-10-12T05:58:21;6.30;99.90
1083;DHT22;530;51.448;7.238;2022-10-12T06:00:46;6.30;99.90
1083;DHT22;530;51.448;7.238;2022-10-12T06:03:12;6.40;99.90
1083;DHT22;530;51.448;7.238;2022-10-12T06:05:38;6.40;99.90
1083;DHT22;530;51.448;7.238;2022-10-12T06:08:04;6.20;99.90
1083;DHT22;530;51.448;7.238;2022-10-12T06:10:29;6.20;99.90
1083;DHT22;530;51.448;7.238;2022-10-12T06:12:55;6.30;99.90
1083;DHT22;530;51.448;7.238;2022-10-12T06:15:21;6.20;99.90
1083;DHT22;530;51.448;7.238;2022-10-12T06:17:46;6.20;99.90
1083;DHT22;530;51.448;7.238;2022-10-12T06:20:12;6.40;99.90
1083;DHT22;530;51.448;7.238;2022-10-12T06:22:38;6.10;99.90
1083;DHT22;530;51.448;7.238;2022-10-12T06:25:04;6.30;99.90
1083;DHT22;530;51.448;7.238;2022-10-12T06:27:29;6.30;99.90
1083;DHT22;530;51.448;7.238;2022-10-12T06:29:55;6.20;99.90
1083;DHT22;530;51.448;7.238;2022-10-12T06:32:21;6.10;99.90
1083;DHT22;530;51.448;7.238;2022-10-12T06:34:46;6.30;99.90
1083;DHT22;530;51.448;7.238;2022-10-12T06:37:12;6.20;99.90
1083;DHT22;530;51.448;7.238;2022-10-12T06:39:37;6.20;99.90
1083;DHT22;530;51.448;7.238;2022-10-12T06:42:03;6.20;99.90
1083;DHT22;530;51.448;7.238;2022-10-12T06:44:29;6.20;99.90
1083;DHT22;530;51.448;7.238;2022-10-12T06:46:54;6.10;99.90
1083;DHT22;530;51.448;7.238;2022-10-12T06:49:20;6.20;99.90
1083;DHT22;530;51.448;7.238;2022-10-12T06:51:46;6.50;99.90
1083;DHT22;530;51.448;7.238;2022-10-12T06:54:11;6.30;99.90
1083;DHT22;530;51.448;7.238;2022-10-12T06:56:37;6.50;99.90
1083;DHT22;530;51.448;7.238;2022-10-12T06:59:04;6.40;99.90
1083;DHT22;530;51.448;7.238;2022-10-12T07:01:30;6.60;99.90
1083;DHT22;530;51.448;7.238;2022-10-12T07:03:55;6.70;99.90
1083;DHT22;530;51.448;7.238;2022-10-12T07:06:21;6.90;99.90
1083;DHT22;530;51.448;7.238;2022-10-12T07:08:47;7.10;99.90
1083;DHT22;530;51.448;7.238;2022-10-12T07:11:14;7.30;99.90
1083;DHT22;530;51.448;7.238;2022-10-12T07:13:40;7.40;99.90
1083;DHT22;530;51.448;7.238;2022-10-12T07:16:06;7.70;99.90
1083;DHT22;530;51.448;7.238;2022-10-12T07:18:32;8.00;99.90
1083;DHT22;530;51.448;7.238;2022-10-12T07:20:58;8.20;99.90
1083;DHT22;530;51.448;7.238;2022-10-12T07:23:25;8.60;99.90
1083;DHT22;530;51.448;7.238;2022-10-12T07:25:51;8.70;99.90
1083;DHT22;530;51.448;7.238;2022-10-12T07:28:17;8.90;99.90
1083;DHT22;530;51.448;7.238;2022-10-12T07:30:43;9.00;99.90
1083;DHT22;530;51.448;7.238;2022-10-12T07:33:10;9.10;99.90
1083;DHT22;530;51.448;7.238;2022-10-12T07:35:36;9.20;99.90
1083;DHT22;530;51.448;7.238;2022-10-12T07:38:02;9.30;99.90
1083;DHT22;530;51.448;7.238;2022-10-12T07:40:29;9.50;99.90
1083;DHT22;530;51.448;7.238;2022-10-12T07:42:55;9.70;99.90
1083;DHT22;530;51.448;7.238;2022-10-12T07:45:21;10.00;99.90
1083;DHT22;530;51.448;7.238;2022-10-12T07:47:47;10.30;99.90
1083;DHT22;530;51.448;7.238;2022-10-12T07:50:12;10.60;99.90
1083;DHT22;530;51.448;7.238;2022-10-12T07:52:39;10.90;99.90
1083;DHT22;530;51.448;7.238;2022-10-12T07:55:06;11.10;99.90
1083;DHT22;530;51.448;7.238;2022-10-12T07:57:32;11.40;99.90
1083;DHT22;530;51.448;7.238;2022-10-12T07:59:57;11.70;99.90
1083;DHT22;530;51.448;7.238;2022-10-12T08:02:23;11.90;99.90
1083;DHT22;530;51.448;7.238;2022-10-12T08:04:49;12.10;99.90
1083;DHT22;530;51.448;7.238;2022-10-12T08:07:14;12.30;99.90
1083;DHT22;530;51.448;7.238;2022-10-12T08:09:40;12.40;99.90
1083;DHT22;530;51.448;7.238;2022-10-12T08:12:06;12.50;99.90
1083;DHT22;530;51.448;7.238;2022-10-12T08:14:34;12.60;99.90
1083;DHT22;530;51.448;7.238;2022-10-12T08:16:59;12.80;99.90
1083;DHT22;530;51.448;7.238;2022-10-12T08:19:25;13.00;99.90
1083;DHT22;530;51.448;7.238;2022-10-12T08:21:50;13.20;99.90
1083;DHT22;530;51.448;7.238;2022-10-12T08:24:17;13.50;99.90
1083;DHT22;530;51.448;7.238;2022-10-12T08:26:42;13.70;99.90
1083;DHT22;530;51.448;7.238;2022-10-12T08:29:09;13.80;99.90
1083;DHT22;530;51.448;7.238;2022-10-12T08:31:35;13.70;99.90
1083;DHT22;530;51.448;7.238;2022-10-12T08:34:01;13.70;99.90
1083;DHT22;530;51.448;7.238;2022-10-12T08:36:27;13.80;99.90
1083;DHT22;530;51.448;7.238;2022-10-12T08:38:54;13.90;99.90
1083;DHT22;530;51.448;7.238;2022-10-12T08:49:38;14.10;99.90
1083;DHT22;530;51.448;7.238;2022-10-12T08:52:08;14.10;99.90
1083;DHT22;530;51.448;7.238;2022-10-12T08:54:42;14.00;99.90
1083;DHT22;530;51.448;7.238;2022-10-12T08:57:17;14.00;99.90
1083;DHT22;530;51.448;7.238;2022-10-12T08:59:44;14.10;99.90
1083;DHT22;530;51.448;7.238;2022-10-12T09:05:10;14.40;99.90
1083;DHT22;530;51.448;7.238;2022-10-12T09:08:00;14.50;99.90
1083;DHT22;530;51.448;7.238;2022-10-12T09:10:43;14.60;99.90
1083;DHT22;530;51.448;7.238;2022-10-12T09:15:58;14.80;99.90
1083;DHT22;530;51.448;7.238;2022-10-12T09:18:40;14.80;99.90
1083;DHT22;530;51.448;7.238;2022-10-12T09:21:12;14.60;99.90
1083;DHT22;530;51.448;7.238;2022-10-12T09:23:41;14.60;99.90
1083;DHT22;530;51.448;7.238;2022-10-12T09:26:33;14.60;99.90
1083;DHT22;530;51.448;7.238;2022-10-12T09:29:00;14.40;99.90
1083;DHT22;530;51.448;7.238;2022-10-12T09:34:08;14.30;99.90
1083;DHT22;530;51.448;7.238;2022-10-12T09:36:37;14.40;99.90
1083;DHT22;530;51.448;7.238;2022-10-12T09:39:06;14.60;99.90
1083;DHT22;530;51.448;7.238;2022-10-12T09:41:38;14.80;99.90
1083;DHT22;530;51.448;7.238;2022-10-12T09:44:06;14.90;99.90
1083;DHT22;530;51.448;7.238;2022-10-12T09:46:44;15.10;99.90
1083;DHT22;530;51.448;7.238;2022-10-12T09:49:10;15.00;99.90
1083;DHT22;530;51.448;7.238;2022-10-12T09:51:36;15.20;99.90
1083;DHT22;530;51.448;7.238;2022-10-12T09:54:03;15.30;99.90
1083;DHT22;530;51.448;7.238;2022-10-12T09:59:20;15.60;99.90
1083;DHT22;530;51.448;7.238;2022-10-12T10:02:14;15.60;99.90
1083;DHT22;530;51.448;7.238;2022-10-12T10:04:42;15.60;99.90
1083;DHT22;530;51.448;7.238;2022-10-12T10:07:27;15.70;99.90
1083;DHT22;530;51.448;7.238;2022-10-12T10:10:15;15.70;99.90
1083;DHT22;530;51.448;7.238;2022-10-12T10:12:56;15.70;99.90
1083;DHT22;530;51.448;7.238;2022-10-12T10:15:36;15.70;99.90
1083;DHT22;530;51.448;7.238;2022-10-12T10:18:16;15.80;99.90
1083;DHT22;530;51.448;7.238;2022-10-12T10:20:53;15.80;99.90
1083;DHT22;530;51.448;7.238;2022-10-12T10:26:08;15.80;99.90
1083;DHT22;530;51.448;7.238;2022-10-12T10:28:37;15.90;99.90
1083;DHT22;530;51.448;7.238;2022-10-12T10:31:21;16.00;99.90
1083;DHT22;530;51.448;7.238;2022-10-12T10:34:09;16.00;99.90
1083;DHT22;530;51.448;7.238;2022-10-12T10:36:39;16.10;99.90
1083;DHT22;530;51.448;7.238;2022-10-12T10:39:11;16.20;99.90
1083;DHT22;530;51.448;7.238;2022-10-12T10:41:41;16.20;99.80
1083;DHT22;530;51.448;7.238;2022-10-12T10:44:27;16.20;99.90
1083;DHT22;530;51.448;7.238;2022-10-12T10:47:11;16.20;99.40
1083;DHT22;530;51.448;7.238;2022-10-12T10:49:45;16.20;99.20
1083;DHT22;530;51.448;7.238;2022-10-12T10:54:48;16.00;99.80
1083;DHT22;530;51.448;7.238;2022-10-12T10:57:19;15.90;99.70
1083;DHT22;530;51.448;7.238;2022-10-12T10:59:52;15.90;99.90
1083;DHT22;530;51.448;7.238;2022-10-12T11:02:55;15.90;99.90
1083;DHT22;530;51.448;7.238;2022-10-12T11:05:28;15.90;99.90
1083;DHT22;530;51.448;7.238;2022-10-12T11:08:27;15.90;99.90
1083;DHT22;530;51.448;7.238;2022-10-12T11:11:05;16.00;99.90
1083;DHT22;530;51.448;7.238;2022-10-12T11:13:58;16.10;99.90
1083;DHT22;530;51.448;7.238;2022-10-12T11:19:21;16.20;99.90
1083;DHT22;530;51.448;7.238;2022-10-12T11:22:23;16.20;99.90
1083;DHT22;530;51.448;7.238;2022-10-12T11:25:00;16.50;99.90
1083;DHT22;530;51.448;7.238;2022-10-12T11:27:36;16.60;99.60
1083;DHT22;530;51.448;7.238;2022-10-12T11:30:08;16.80;98.10
1083;DHT22;530;51.448;7.238;2022-10-12T11:32:44;17.00;98.50
1083;DHT22;530;51.448;7.238;2022-10-12T11:35:26;17.30;98.90
1083;DHT22;530;51.448;7.238;2022-10-12T11:37:58;17.30;97.30
1083;DHT22;530;51.448;7.238;2022-10-12T11:40:32;17.40;98.20
1083;DHT22;530;51.448;7.238;2022-10-12T11:43:05;17.50;98.10
1083;DHT22;530;51.448;7.238;2022-10-12T11:45:41;17.60;97.80
1083;DHT22;530;51.448;7.238;2022-10-12T11:48:15;17.60;97.70
1083;DHT22;530;51.448;7.238;2022-10-12T11:50:45;17.70;97.40
1083;DHT22;530;51.448;7.238;2022-10-12T11:56:23;17.80;97.50
1083;DHT22;530;51.448;7.238;2022-10-12T11:58:56;17.90;97.50
1083;DHT22;530;51.448;7.238;2022-10-12T12:11:22;17.50;98.30
1083;DHT22;530;51.448;7.238;2022-10-12T12:13:49;17.40;98.90
1083;DHT22;530;51.448;7.238;2022-10-12T12:24:38;17.30;99.70
1083;DHT22;530;51.448;7.238;2022-10-12T12:28:04;17.20;99.50
1083;DHT22;530;51.448;7.238;2022-10-12T12:32:58;17.30;99.70
1083;DHT22;530;51.448;7.238;2022-10-12T12:36:12;17.40;99.80
1083;DHT22;530;51.448;7.238;2022-10-12T12:38:33;17.50;99.90
1083;DHT22;530;51.448;7.238;2022-10-12T12:41:18;17.50;98.90
1083;DHT22;530;51.448;7.238;2022-10-12T12:46:13;17.40;99.50
1083;DHT22;530;51.448;7.238;2022-10-12T12:51:08;17.40;98.80
1083;DHT22;530;51.448;7.238;2022-10-12T12:53:37;17.30;99.30
1083;DHT22;530;51.448;7.238;2022-10-12T12:56:10;17.30;99.30
1083;DHT22;530;51.448;7.238;2022-10-12T12:58:47;17.30;99.90
1083;DHT22;530;51.448;7.238;2022-10-12T13:01:51;17.30;99.90
1083;DHT22;530;51.448;7.238;2022-10-12T13:07:25;17.20;99.50
1083;DHT22;530;51.448;7.238;2022-10-12T13:10:15;17.20;99.70
1083;DHT22;530;51.448;7.238;2022-10-12T13:13:17;17.10;99.60
1083;DHT22;530;51.448;7.238;2022-10-12T13:18:25;17.10;99.90
1083;DHT22;530;51.448;7.238;2022-10-12T13:20:52;17.20;99.90
1083;DHT22;530;51.448;7.238;2022-10-12T13:23:22;17.20;99.90
1083;DHT22;530;51.448;7.238;2022-10-12T13:25:55;17.20;99.60
1083;DHT22;530;51.448;7.238;2022-10-12T13:28:28;17.10;99.20
1083;DHT22;530;51.448;7.238;2022-10-12T13:31:05;17.00;99.80
1083;DHT22;530;51.448;7.238;2022-10-12T13:33:44;16.90;99.90
1083;DHT22;530;51.448;7.238;2022-10-12T13:36:19;16.90;99.90
1083;DHT22;530;51.448;7.238;2022-10-12T13:38:45;16.90;99.90
1083;DHT22;530;51.448;7.238;2022-10-12T13:41:16;17.00;99.90
1083;DHT22;530;51.448;7.238;2022-10-12T13:46:45;16.90;99.90
1083;DHT22;530;51.448;7.238;2022-10-12T13:49:15;16.90;99.90
1083;DHT22;530;51.448;7.238;2022-10-12T13:51:43;16.90;99.90
1083;DHT22;530;51.448;7.238;2022-10-12T13:54:50;16.90;99.90
1083;DHT22;530;51.448;7.238;2022-10-12T14:03:03;16.90;99.90
1083;DHT22;530;51.448;7.238;2022-10-12T14:05:29;16.90;99.90
1083;DHT22;530;51.448;7.238;2022-10-12T14:08:13;17.00;99.90
1083;DHT22;530;51.448;7.238;2022-10-12T14:10:40;17.00;99.90
1083;DHT22;530;51.448;7.238;2022-10-12T14:13:07;17.00;99.90
1083;DHT22;530;51.448;7.238;2022-10-12T14:15:39;16.90;99.90
1083;DHT22;530;51.448;7.238;2022-10-12T14:18:34;16.90;99.90
1083;DHT22;530;51.448;7.238;2022-10-12T14:23:30;17.00;99.90
1083;DHT22;530;51.448;7.238;2022-10-12T14:25:56;16.90;99.90
1083;DHT22;530;51.448;7.238;2022-10-12T14:28:30;17.00;99.90
1083;DHT22;530;51.448;7.238;2022-10-12T14:30:57;16.90;99.90
1083;DHT22;530;51.448;7.238;2022-10-12T14:33:24;16.90;99.90
1083;DHT22;530;51.448;7.238;2022-10-12T14:35:51;17.00;99.90
1083;DHT22;530;51.448;7.238;2022-10-12T14:38:44;17.00;99.90
1083;DHT22;530;51.448;7.238;2022-10-12T14:41:42;16.90;99.90
1083;DHT22;530;51.448;7.238;2022-10-12T14:46:36;16.90;99.90
1083;DHT22;530;51.448;7.238;2022-10-12T14:49:02;16.80;99.90
1083;DHT22;530;51.448;7.238;2022-10-12T14:51:28;16.80;99.90
1083;DHT22;530;51.448;7.238;2022-10-12T14:54:01;16.80;99.90
1083;DHT22;530;51.448;7.238;2022-10-12T14:56:27;16.70;99.90
1083;DHT22;530;51.448;7.238;2022-10-12T14:58:53;16.60;99.90
1083;DHT22;530;51.448;7.238;2022-10-12T15:01:19;16.60;99.90
1083;DHT22;530;51.448;7.238;2022-10-12T15:03:45;16.50;99.90
1083;DHT22;530;51.448;7.238;2022-10-12T15:06:13;16.50;99.90
1083;DHT22;530;51.448;7.238;2022-10-12T15:08:39;16.50;99.90
1083;DHT22;530;51.448;7.238;2022-10-12T15:11:05;16.50;99.90
1083;DHT22;530;51.448;7.238;2022-10-12T15:13:30;16.50;99.90
1083;DHT22;530;51.448;7.238;2022-10-12T15:15:58;16.50;99.90
1083;DHT22;530;51.448;7.238;2022-10-12T15:18:25;16.40;99.90
1083;DHT22;530;51.448;7.238;2022-10-12T15:20:51;16.30;99.90
1083;DHT22;530;51.448;7.238;2022-10-12T15:23:16;16.30;99.90
1083;DHT22;530;51.448;7.238;2022-10-12T15:25:51;16.20;99.90
1083;DHT22;530;51.448;7.238;2022-10-12T15:28:17;16.10;99.90
1083;DHT22;530;51.448;7.238;2022-10-12T15:30:43;16.10;99.90
1083;DHT22;530;51.448;7.238;2022-10-12T15:33:10;16.10;99.90
1083;DHT22;530;51.448;7.238;2022-10-12T15:35:36;16.00;99.90
1083;DHT22;530;51.448;7.238;2022-10-12T15:38:02;16.00;99.90
1083;DHT22;530;51.448;7.238;2022-10-12T15:40:29;16.00;99.90
1083;DHT22;530;51.448;7.238;2022-10-12T15:42:55;15.90;99.90
1083;DHT22;530;51.448;7.238;2022-10-12T15:45:26;15.90;99.90
1083;DHT22;530;51.448;7.238;2022-10-12T15:47:52;15.80;99.90
1083;DHT22;530;51.448;7.238;2022-10-12T15:50:21;15.60;99.90
1083;DHT22;530;51.448;7.238;2022-10-12T15:52:48;15.50;99.90
1083;DHT22;530;51.448;7.238;2022-10-12T15:55:20;15.40;99.90
1083;DHT22;530;51.448;7.238;2022-10-12T15:57:47;15.30;99.90
1083;DHT22;530;51.448;7.238;2022-10-12T16:00:14;15.30;99.90
1083;DHT22;530;51.448;7.238;2022-10-12T16:02:40;15.20;99.90
1083;DHT22;530;51.448;7.238;2022-10-12T16:05:22;15.20;99.90
1083;DHT22;530;51.448;7.238;2022-10-12T16:07:49;15.20;99.90
1083;DHT22;530;51.448;7.238;2022-10-12T16:10:16;15.10;99.90
1083;DHT22;530;51.448;7.238;2022-10-12T16:12:44;15.00;99.90
1083;DHT22;530;51.448;7.238;2022-10-12T16:15:16;15.00;99.90
1083;DHT22;530;51.448;7.238;2022-10-12T16:17:41;15.00;99.90
1083;DHT22;530;51.448;7.238;2022-10-12T16:20:08;14.80;99.90
1083;DHT22;530;51.448;7.238;2022-10-12T16:22:35;14.70;99.90
1083;DHT22;530;51.448;7.238;2022-10-12T16:25:02;14.60;99.90
1083;DHT22;530;51.448;7.238;2022-10-12T16:27:28;14.50;99.90
1083;DHT22;530;51.448;7.238;2022-10-12T16:29:54;14.40;99.90
1083;DHT22;530;51.448;7.238;2022-10-12T16:32:20;14.30;99.90
1083;DHT22;530;51.448;7.238;2022-10-12T16:34:46;14.20;99.90
1083;DHT22;530;51.448;7.238;2022-10-12T16:37:11;14.10;99.90
1083;DHT22;530;51.448;7.238;2022-10-12T16:39:37;14.00;99.90
1083;DHT22;530;51.448;7.238;2022-10-12T16:42:03;14.00;99.90
1083;DHT22;530;51.448;7.238;2022-10-12T16:44:28;13.90;99.90
1083;DHT22;530;51.448;7.238;2022-10-12T16:46:54;13.90;99.90
1083;DHT22;530;51.448;7.238;2022-10-12T16:49:20;13.90;99.90
1083;DHT22;530;51.448;7.238;2022-10-12T16:51:45;13.90;99.90
1083;DHT22;530;51.448;7.238;2022-10-12T16:54:12;13.80;99.90
1083;DHT22;530;51.448;7.238;2022-10-12T16:56:38;13.70;99.90
1083;DHT22;530;51.448;7.238;2022-10-12T16:59:04;13.70;99.90
1083;DHT22;530;51.448;7.238;2022-10-12T17:01:30;13.70;99.90
1083;DHT22;530;51.448;7.238;2022-10-12T17:03:55;13.60;99.90
1083;DHT22;530;51.448;7.238;2022-10-12T17:06:22;13.60;99.90
1083;DHT22;530;51.448;7.238;2022-10-12T17:08:47;13.50;99.90
1083;DHT22;530;51.448;7.238;2022-10-12T17:11:14;13.40;99.90
1083;DHT22;530;51.448;7.238;2022-10-12T17:13:42;13.40;99.90
1083;DHT22;530;51.448;7.238;2022-10-12T17:16:08;13.30;99.90
1083;DHT22;530;51.448;7.238;2022-10-12T17:18:53;13.40;99.90
1083;DHT22;530;51.448;7.238;2022-10-12T17:21:19;13.30;99.90
1083;DHT22;530;51.448;7.238;2022-10-12T17:23:45;13.20;99.90
1083;DHT22;530;51.448;7.238;2022-10-12T17:26:10;13.20;99.90
1083;DHT22;530;51.448;7.238;2022-10-12T17:28:37;13.20;99.90
1083;DHT22;530;51.448;7.238;2022-10-12T17:31:04;13.10;99.90
1083;DHT22;530;51.448;7.238;2022-10-12T17:33:30;13.00;99.90
1083;DHT22;530;51.448;7.238;2022-10-12T17:35:57;12.90;99.90
1083;DHT22;530;51.448;7.238;2022-10-12T17:38:22;12.80;99.90
1083;DHT22;530;51.448;7.238;2022-10-12T17:40:48;12.70;99.90
1083;DHT22;530;51.448;7.238;2022-10-12T17:43:16;12.70;99.90
1083;DHT22;530;51.448;7.238;2022-10-12T17:45:42;12.70;99.90
1083;DHT22;530;51.448;7.238;2022-10-12T17:48:08;12.60;99.90
1083;DHT22;530;51.448;7.238;2022-10-12T17:50:36;12.60;99.90
1083;DHT22;530;51.448;7.238;2022-10-12T17:53:01;12.50;99.90
1083;DHT22;530;51.448;7.238;2022-10-12T17:55:27;12.50;99.90
1083;DHT22;530;51.448;7.238;2022-10-12T17:57:53;12.40;99.90
1083;DHT22;530;51.448;7.238;2022-10-12T18:00:18;12.40;99.90
1083;DHT22;530;51.448;7.238;2022-10-12T18:02:44;12.30;99.90
1083;DHT22;530;51.448;7.238;2022-10-12T18:05:10;12.30;99.90
1083;DHT22;530;51.448;7.238;2022-10-12T18:07:35;12.30;99.90
1083;DHT22;530;51.448;7.238;2022-10-12T18:10:04;12.20;99.90
1083;DHT22;530;51.448;7.238;2022-10-12T18:12:29;12.20;99.90
1083;DHT22;530;51.448;7.238;2022-10-12T18:14:55;12.20;99.90
1083;DHT22;530;51.448;7.238;2022-10-12T18:17:21;12.10;99.90
1083;DHT22;530;51.448;7.238;2022-10-12T18:19:47;12.10;99.90
1083;DHT22;530;51.448;7.238;2022-10-12T18:22:13;12.10;99.90
1083;DHT22;530;51.448;7.238;2022-10-12T18:24:39;12.10;99.90
1083;DHT22;530;51.448;7.238;2022-10-12T18:27:05;12.10;99.90
1083;DHT22;530;51.448;7.238;2022-10-12T18:29:31;12.10;99.90